Time;durP1;ratioP1;P1;durP2;ratioP2;P2;SDS_P1;SDS_P2;PMS_P1;PMS_P2;Temp;Humidity;BMP_temperature;BMP_pressure;BME280_temperature;BME280_humidity;BME280_pressure;Samples;Min_cycle;Max_cycle;Signal;HPM_P1;HPM_P2
2022/01/22 00:02:15;;;;;;;;;;;;;;;5.01;100.00;100972.19;5036158;28;20342;-85
2022/01/22 00:04:43;;;;;;;;;;;;;;;5.30;100.00;100963.72;5052687;28;20031;-86
2022/01/22 00:07:10;;;;;;;;;;;;;;;5.34;100.00;100959.13;5052398;28;20392;-85
2022/01/22 00:09:51;;;;;;;;;;;;;;;5.16;100.00;100966.03;5036341;28;20291;-86
2022/01/22 00:15:10;;;;;;;;;;;;;;;5.21;100.00;100959.47;5052743;28;19925;-85
2022/01/22 00:17:37;;;;;;;;;;;;;;;5.14;100.00;100960.00;5069268;28;19925;-85
2022/01/22 00:20:05;;;;;;;;;;;;;;;5.05;100.00;100950.97;5052548;28;20414;-85
2022/01/22 00:22:35;;;;;;;;;;;;;;;5.11;100.00;100960.69;5052777;28;20383;-85
2022/01/22 00:25:07;;;;;;;;;;;;;;;4.99;100.00;100957.88;5053885;28;19954;-85
2022/01/22 00:27:39;;;;;;;;;;;;;;;5.14;100.00;100948.91;5036080;28;20012;-85
2022/01/22 00:30:08;;;;;;;;;;;;;;;5.00;100.00;100953.94;5052402;28;19925;-85
2022/01/22 00:32:36;;;;;;;;;;;;;;;5.14;100.00;100957.22;5035863;28;19925;-85
2022/01/22 00:35:04;;;;;;;;;;;;;;;5.15;100.00;100950.53;5068958;28;19925;-85
2022/01/22 00:37:32;;;;;;;;;;;;;;;5.04;100.00;100932.72;5035875;28;19931;-85
2022/01/22 00:40:00;;;;;;;;;;;;;;;4.99;100.00;100957.06;5052528;28;19925;-85
2022/01/22 00:42:27;;;;;;;;;;;;;;;5.01;100.00;100954.78;5035600;28;19932;-85
2022/01/22 00:44:54;;;;;;;;;;;;;;;5.00;100.00;100951.19;5036080;28;19925;-85
2022/01/22 00:47:22;;;;;;;;;;;;;;;5.04;100.00;100949.34;5052694;28;19925;-85
2022/01/22 00:49:50;;;;;;;;;;;;;;;5.13;100.00;100958.41;5036549;28;19952;-85
2022/01/22 00:52:18;;;;;;;;;;;;;;;4.65;100.00;100963.72;5037249;28;19925;-85
2022/01/22 00:54:45;;;;;;;;;;;;;;;4.80;100.00;100954.78;5055884;28;20336;-85
2022/01/22 00:57:13;;;;;;;;;;;;;;;4.83;100.00;100948.56;5072437;28;19928;-85
2022/01/22 00:59:40;;;;;;;;;;;;;;;4.82;100.00;100957.22;5056064;28;20007;-85
2022/01/22 01:02:07;;;;;;;;;;;;;;;5.03;100.00;100942.19;5055758;28;19924;-85
2022/01/22 01:04:36;;;;;;;;;;;;;;;4.77;100.00;100938.84;5039494;28;20303;-85
2022/01/22 01:07:04;;;;;;;;;;;;;;;4.76;100.00;100950.25;5055401;28;19925;-85
2022/01/22 01:09:34;;;;;;;;;;;;;;;4.88;100.00;100958.63;5055842;28;19929;-84
2022/01/22 01:12:10;;;;;;;;;;;;;;;4.83;100.00;100951.34;5055970;28;19931;-85
2022/01/22 01:14:55;;;;;;;;;;;;;;;4.63;100.00;100943.88;5072586;28;19931;-85
2022/01/22 01:34:18;;;;;;;;;;;;;;;4.75;100.00;100952.25;5037601;28;20031;-84
2022/01/22 01:36:47;;;;;;;;;;;;;;;4.53;100.00;100937.94;5038044;28;19932;-85
2022/01/22 01:39:19;;;;;;;;;;;;;;;4.87;100.00;100949.53;5037763;28;20453;-85
2022/01/22 01:44:16;;;;;;;;;;;;;;;4.87;100.00;100941.22;5004957;28;20024;-85
2022/01/22 01:47:00;;;;;;;;;;;;;;;4.85;100.00;100940.75;5037875;28;19924;-85
2022/01/22 01:49:31;;;;;;;;;;;;;;;4.89;100.00;100938.91;4988913;28;20300;-86
2022/01/22 01:52:02;;;;;;;;;;;;;;;4.94;100.00;100948.94;5005310;28;19924;-86
2022/01/22 01:54:58;;;;;;;;;;;;;;;4.87;100.00;100944.00;5004515;28;20382;-86
2022/01/22 01:57:38;;;;;;;;;;;;;;;4.99;100.00;100924.63;5021063;28;20034;-85
2022/01/22 02:00:21;;;;;;;;;;;;;;;4.72;100.00;100918.88;5020924;28;19925;-85
2022/01/22 02:02:54;;;;;;;;;;;;;;;4.99;100.00;100945.97;5088226;28;20002;-85
2022/01/22 02:05:25;;;;;;;;;;;;;;;5.07;100.00;100951.41;5070624;28;19928;-85
2022/01/22 02:07:58;;;;;;;;;;;;;;;5.01;100.00;100960.31;5072644;28;19924;-85
2022/01/22 02:10:49;;;;;;;;;;;;;;;4.96;100.00;100958.56;5071588;28;19932;-85
2022/01/22 02:24:45;;;;;;;;;;;;;;;4.83;100.00;100959.66;5038079;28;20618;-85
2022/01/22 02:27:14;;;;;;;;;;;;;;;4.90;100.00;100951.63;5054391;28;19929;-85
2022/01/22 02:29:41;;;;;;;;;;;;;;;4.82;100.00;100948.91;5038257;28;19951;-85
2022/01/22 02:35:13;;;;;;;;;;;;;;;4.87;100.00;100952.31;5037461;28;19924;-85
2022/01/22 02:37:47;;;;;;;;;;;;;;;4.92;100.00;100956.81;5054347;28;19932;-85
2022/01/22 02:40:23;;;;;;;;;;;;;;;4.87;100.00;100973.63;5070802;28;19925;-85
2022/01/22 02:42:51;;;;;;;;;;;;;;;5.13;100.00;100969.47;5037603;28;19925;-85
2022/01/22 02:45:21;;;;;;;;;;;;;;;4.63;100.00;100966.03;5071011;28;19932;-85
2022/01/22 02:47:50;;;;;;;;;;;;;;;4.56;100.00;100971.28;5054125;28;20023;-85
2022/01/22 02:50:18;;;;;;;;;;;;;;;4.93;100.00;100959.25;5053815;28;20418;-85
2022/01/22 02:52:45;;;;;;;;;;;;;;;4.89;100.00;100952.75;5053645;28;19929;-85
2022/01/22 02:55:13;;;;;;;;;;;;;;;4.94;100.00;100960.84;5070404;28;19925;-85
2022/01/22 02:57:43;;;;;;;;;;;;;;;5.02;100.00;100946.13;5053732;28;19925;-85
2022/01/22 03:00:13;;;;;;;;;;;;;;;4.92;100.00;100951.28;5037127;28;19925;-85
2022/01/22 03:02:40;;;;;;;;;;;;;;;4.94;100.00;100952.53;5053557;28;19924;-85
2022/01/22 03:05:08;;;;;;;;;;;;;;;4.90;100.00;100951.63;5053602;28;19925;-85
2022/01/22 03:07:36;;;;;;;;;;;;;;;5.16;100.00;100945.81;5053244;28;20391;-85
2022/01/22 03:10:14;;;;;;;;;;;;;;;5.18;100.00;100933.22;5069782;28;19929;-85
2022/01/22 03:15:52;;;;;;;;;;;;;;;4.96;100.00;100928.09;5052878;28;19928;-85
2022/01/22 03:18:34;;;;;;;;;;;;;;;5.10;100.00;100942.41;5036938;28;20023;-85
2022/01/22 03:29:08;;;;;;;;;;;;;;;5.26;100.00;100935.09;5053453;28;19929;-85
2022/01/22 03:31:36;;;;;;;;;;;;;;;5.26;100.00;100935.09;5086279;28;19928;-85
2022/01/22 03:34:04;;;;;;;;;;;;;;;5.29;100.00;100941.91;5052642;28;19964;-85
2022/01/22 03:36:33;;;;;;;;;;;;;;;5.14;100.00;100948.91;5053118;28;19964;-85
2022/01/22 03:39:07;;;;;;;;;;;;;;;5.40;100.00;100946.69;5053090;28;19932;-85
2022/01/22 03:41:35;;;;;;;;;;;;;;;5.43;100.00;100956.25;5069439;28;19924;-85
2022/01/22 03:44:08;;;;;;;;;;;;;;;5.43;100.00;100940.44;5069914;28;19933;-85
2022/01/22 03:46:38;;;;;;;;;;;;;;;5.54;100.00;100943.56;5069125;28;19924;-85
2022/01/22 03:49:05;;;;;;;;;;;;;;;5.22;100.00;100944.44;5036269;28;20387;-85
2022/01/22 03:51:32;;;;;;;;;;;;;;;5.36;100.00;100929.09;5053044;28;19933;-85
2022/01/22 03:53:59;;;;;;;;;;;;;;;5.59;100.00;100937.78;5036174;28;19987;-85
2022/01/22 03:56:26;;;;;;;;;;;;;;;5.55;100.00;100942.41;5053041;28;20331;-85
2022/01/22 03:58:54;;;;;;;;;;;;;;;5.57;100.00;100935.34;5054264;28;20392;-86
2022/01/22 04:04:24;;;;;;;;;;;;;;;5.67;100.00;100944.38;5052688;28;19952;-85
2022/01/22 04:09:33;;;;;;;;;;;;;;;5.60;100.00;100940.22;5036540;28;20313;-85
2022/01/22 04:12:01;;;;;;;;;;;;;;;5.79;100.00;100930.50;5036217;28;19931;-85
2022/01/22 04:14:34;;;;;;;;;;;;;;;5.76;100.00;100942.28;5069771;28;19932;-85
2022/01/22 04:17:19;;;;;;;;;;;;;;;5.58;100.00;100933.41;5069597;28;19925;-85
2022/01/22 04:25:24;;;;;;;;;;;;;;;5.85;100.00;100937.47;5053679;28;20372;-86
2022/01/22 04:27:53;;;;;;;;;;;;;;;5.81;100.00;100942.06;5054849;28;19925;-84
2022/01/22 04:30:21;;;;;;;;;;;;;;;5.80;100.00;100938.47;5056494;28;20070;-85
2022/01/22 04:32:49;;;;;;;;;;;;;;;5.87;100.00;100937.94;5056364;28;19925;-86
2022/01/22 04:35:17;;;;;;;;;;;;;;;5.70;100.00;100932.59;5056205;28;19925;-85
2022/01/22 04:37:45;;;;;;;;;;;;;;;5.60;100.00;100940.22;5073134;28;19954;-85
2022/01/22 04:40:12;;;;;;;;;;;;;;;5.67;100.00;100944.38;5056570;28;19974;-85
2022/01/22 04:42:41;;;;;;;;;;;;;;;5.68;100.00;100921.03;5056167;28;19932;-85
2022/01/22 04:45:25;;;;;;;;;;;;;;;5.82;100.00;100940.94;5072834;28;20384;-85
2022/01/22 04:47:57;;;;;;;;;;;;;;;5.54;100.00;100936.03;5073551;28;19959;-86
2022/01/22 04:55:40;;;;;;;;;;;;;;;5.58;100.00;100937.00;5039886;28;20405;-85
2022/01/22 04:58:08;;;;;;;;;;;;;;;5.63;100.00;100951.78;5039300;28;20070;-84
2022/01/22 05:00:36;;;;;;;;;;;;;;;5.77;100.00;100960.56;5056075;28;19925;-85
2022/01/22 05:03:06;;;;;;;;;;;;;;;5.91;100.00;100952.75;5088322;28;19932;-85
2022/01/22 05:06:06;;;;;;;;;;;;;;;5.77;100.00;100941.16;5047109;28;19925;-85
2022/01/22 05:08:52;;;;;;;;;;;;;;;6.09;100.00;100957.69;5034863;28;19932;-85
2022/01/22 05:11:24;;;;;;;;;;;;;;;6.24;100.00;100970.06;5034991;28;20024;-85
2022/01/22 05:13:54;;;;;;;;;;;;;;;6.26;100.00;100956.63;5018455;28;19925;-85
2022/01/22 05:16:22;;;;;;;;;;;;;;;6.26;100.00;100954.69;5018615;28;19925;-86
2022/01/22 05:19:00;;;;;;;;;;;;;;;6.38;100.00;100951.06;5018799;28;19926;-85
2022/01/22 05:21:32;;;;;;;;;;;;;;;6.22;100.00;100947.41;5034222;28;20022;-85
2022/01/22 05:24:03;;;;;;;;;;;;;;;6.11;100.00;100960.13;5018245;28;19948;-85
2022/01/22 05:37:54;;;;;;;;;;;;;;;5.97;100.00;100918.06;4959458;28;19930;-84
2022/01/22 05:40:21;;;;;;;;;;;;;;;6.30;100.00;100925.03;4991930;28;20004;-85
2022/01/22 05:42:48;;;;;;;;;;;;;;;5.96;100.00;100908.94;4995503;28;19925;-85
2022/01/22 05:45:15;;;;;;;;;;;;;;;6.08;100.00;100916.41;4981696;28;20008;-85
2022/01/22 05:47:45;;;;;;;;;;;;;;;6.14;100.00;100915.84;4998010;28;19925;-85
2022/01/22 05:50:25;;;;;;;;;;;;;;;5.99;100.00;100918.50;5016022;28;19925;-85
2022/01/22 05:53:06;;;;;;;;;;;;;;;6.08;100.00;100916.41;4982301;28;19925;-86
2022/01/22 06:01:09;;;;;;;;;;;;;;;6.32;100.00;100930.25;4998015;28;19929;-86
2022/01/22 06:03:54;;;;;;;;;;;;;;;6.41;100.00;100925.34;5011805;28;19930;-85
2022/01/22 06:06:21;;;;;;;;;;;;;;;6.15;100.00;100936.09;5013805;28;19925;-85
2022/01/22 06:08:53;;;;;;;;;;;;;;;5.96;100.00;100935.84;5029619;28;19963;-85
2022/01/22 06:11:25;;;;;;;;;;;;;;;5.90;100.00;100940.03;5038031;28;19925;-85
2022/01/22 06:13:53;;;;;;;;;;;;;;;5.93;100.00;100942.09;5055576;28;20364;-85
2022/01/22 06:16:40;;;;;;;;;;;;;;;5.92;100.00;100946.84;5008034;28;19924;-85
2022/01/22 06:19:16;;;;;;;;;;;;;;;6.18;100.00;100946.50;5054485;28;19929;-85
2022/01/22 06:21:43;;;;;;;;;;;;;;;5.95;100.00;100956.44;5054801;28;19925;-85
2022/01/22 06:24:12;;;;;;;;;;;;;;;6.05;100.00;100961.53;5038129;28;19928;-85
2022/01/22 06:26:40;;;;;;;;;;;;;;;5.87;100.00;100949.03;5054138;28;19925;-85
2022/01/22 06:29:08;;;;;;;;;;;;;;;6.15;100.00;100949.97;5037841;28;20277;-85
2022/01/22 06:31:36;;;;;;;;;;;;;;;6.55;100.00;100959.94;5071101;28;19947;-85
2022/01/22 06:34:04;;;;;;;;;;;;;;;6.15;100.00;100972.16;5062195;28;20338;-85
2022/01/22 06:36:31;;;;;;;;;;;;;;;6.13;100.00;100975.28;5082559;28;19960;-86
2022/01/22 06:39:16;;;;;;;;;;;;;;;6.31;100.00;100970.28;5074172;28;20066;-85
2022/01/22 06:42:02;;;;;;;;;;;;;;;6.32;100.00;100955.22;5088452;28;19924;-85
2022/01/22 06:44:41;;;;;;;;;;;;;;;6.40;100.00;100957.09;5057546;28;19964;-85
2022/01/22 06:47:38;;;;;;;;;;;;;;;6.55;100.00;100943.28;5037232;28;19968;-85
2022/01/22 06:50:15;;;;;;;;;;;;;;;6.37;100.00;100949.44;5070972;28;19960;-85
2022/01/22 06:53:03;;;;;;;;;;;;;;;6.19;100.00;100939.78;5037527;28;20336;-86
2022/01/22 06:56:00;;;;;;;;;;;;;;;5.94;100.00;100954.84;5037274;28;20058;-85
2022/01/22 06:58:44;;;;;;;;;;;;;;;6.22;100.00;100955.72;5034680;28;19990;-85
2022/01/22 07:01:11;;;;;;;;;;;;;;;6.37;100.00;100961.38;5070375;28;19932;-84
2022/01/22 07:03:54;;;;;;;;;;;;;;;6.11;100.00;100971.22;5051185;28;20400;-84
2022/01/22 07:06:34;;;;;;;;;;;;;;;6.15;100.00;100983.28;5087253;28;19924;-84
2022/01/22 07:09:03;;;;;;;;;;;;;;;6.40;100.00;100979.28;5053693;28;19984;-84
2022/01/22 07:11:31;;;;;;;;;;;;;;;6.57;100.00;100963.16;5053699;28;19928;-84
2022/01/22 07:13:59;;;;;;;;;;;;;;;6.19;100.00;100961.97;5053314;28;19931;-84
2022/01/22 07:16:27;;;;;;;;;;;;;;;6.16;100.00;100957.13;5036753;28;20031;-84
2022/01/22 07:19:06;;;;;;;;;;;;;;;6.02;100.00;100940.81;5053257;28;19970;-84
2022/01/22 07:21:36;;;;;;;;;;;;;;;6.23;100.00;100951.78;5053420;28;19931;-84
2022/01/22 07:26:32;;;;;;;;;;;;;;;6.03;100.00;100939.66;5070050;28;20023;-84
2022/01/22 07:29:09;;;;;;;;;;;;;;;5.96;100.00;100941.41;5068580;28;19925;-84
2022/01/22 07:31:42;;;;;;;;;;;;;;;5.89;100.00;100957.84;5054044;28;20394;-84
2022/01/22 07:34:11;;;;;;;;;;;;;;;6.07;100.00;100948.94;5053245;28;19925;-84
2022/01/22 07:36:38;;;;;;;;;;;;;;;6.12;100.00;100967.31;5036345;28;19925;-86
2022/01/22 07:39:06;;;;;;;;;;;;;;;6.09;100.00;100968.00;5086371;28;19929;-82
2022/01/22 07:41:41;;;;;;;;;;;;;;;6.09;100.00;100979.13;5076872;28;20288;-86
2022/01/22 07:44:43;;;;;;;;;;;;;;;5.98;100.00;100984.31;5075196;28;19925;-78
2022/01/22 07:47:10;;;;;;;;;;;;;;;5.87;100.00;100980.38;5069225;28;20039;-82
2022/01/22 07:49:38;;;;;;;;;;;;;;;5.98;100.00;100976.00;5052973;28;20407;-88
2022/01/22 07:52:07;;;;;;;;;;;;;;;5.98;100.00;100975.19;5088016;28;19959;-84
2022/01/22 07:54:34;;;;;;;;;;;;;;;5.95;100.00;100975.88;5052867;28;20007;-89
2022/01/22 07:57:03;;;;;;;;;;;;;;;6.07;100.00;100959.22;5067172;28;19928;-92
2022/01/22 07:59:32;;;;;;;;;;;;;;;5.96;100.00;100974.69;5036867;28;20296;-92
2022/01/22 08:02:02;;;;;;;;;;;;;;;5.95;100.00;100965.59;5036848;28;19931;-91
2022/01/22 08:04:35;;;;;;;;;;;;;;;6.03;100.00;100956.31;5037435;28;19932;-91
2022/01/22 08:07:21;;;;;;;;;;;;;;;5.91;100.00;100955.53;5055798;28;20276;-91
2022/01/22 08:10:00;;;;;;;;;;;;;;;6.02;100.00;100951.94;5070850;28;19959;-91
2022/01/22 08:12:34;;;;;;;;;;;;;;;6.20;100.00;100941.38;5004710;28;19925;-91
2022/01/22 08:15:06;;;;;;;;;;;;;;;5.88;100.00;100945.91;5051993;28;19928;-91
2022/01/22 08:17:34;;;;;;;;;;;;;;;6.13;100.00;100952.25;5019944;28;20557;-92
2022/01/22 08:20:02;;;;;;;;;;;;;;;6.13;100.00;100947.53;5069487;28;20023;-91
2022/01/22 08:23:01;;;;;;;;;;;;;;;6.17;100.00;100936.53;5027766;28;19925;-91
2022/01/22 08:25:48;;;;;;;;;;;;;;;6.06;100.00;100938.19;5031878;28;19929;-91
2022/01/22 08:31:23;;;;;;;;;;;;;;;6.22;100.00;100939.06;4999309;28;20380;-91
2022/01/22 08:36:41;;;;;;;;;;;;;;;6.24;100.00;100943.09;4999080;28;19929;-91
2022/01/22 08:39:08;;;;;;;;;;;;;;;6.27;100.00;100941.63;4983012;28;20356;-91
2022/01/22 08:41:36;;;;;;;;;;;;;;;6.27;100.00;100941.63;4998886;28;19925;-91
2022/01/22 08:44:03;;;;;;;;;;;;;;;6.38;100.00;100942.72;4982858;28;19925;-91
2022/01/22 08:46:31;;;;;;;;;;;;;;;6.17;100.00;100937.34;4966925;28;19932;-91
2022/01/22 08:48:59;;;;;;;;;;;;;;;6.35;100.00;100935.91;4966823;28;20273;-88
2022/01/22 08:51:29;;;;;;;;;;;;;;;6.26;100.00;100948.31;4995489;28;19925;-79
2022/01/22 08:53:59;;;;;;;;;;;;;;;6.45;100.00;100940.19;4995549;28;20365;-85
2022/01/22 08:56:26;;;;;;;;;;;;;;;6.13;100.00;100941.97;4979347;28;20266;-85
2022/01/22 08:58:54;;;;;;;;;;;;;;;6.33;100.00;100923.56;4974893;28;19988;-89
2022/01/22 09:01:33;;;;;;;;;;;;;;;6.43;100.00;100940.53;4983736;28;19925;-86
2022/01/22 09:04:08;;;;;;;;;;;;;;;6.20;100.00;100930.28;5000753;28;19925;-89
2022/01/22 09:06:53;;;;;;;;;;;;;;;6.52;100.00;100943.16;5018361;28;19925;-90
2022/01/22 09:09:56;;;;;;;;;;;;;;;6.34;100.00;100936.25;5021732;28;19964;-87
2022/01/22 09:12:41;;;;;;;;;;;;;;;6.39;100.00;100922.16;5037877;28;20382;-87
2022/01/22 09:15:20;;;;;;;;;;;;;;;6.45;100.00;100937.41;5025530;28;19964;-88
2022/01/22 09:17:48;;;;;;;;;;;;;;;6.29;100.00;100919.84;5022192;28;19936;-89
2022/01/22 09:24:43;;;;;;;;;;;;;;;6.46;100.00;100922.34;5019271;28;19917;-88
2022/01/22 09:27:13;;;;;;;;;;;;;;;6.38;100.00;100921.31;5019229;28;20589;-89
2022/01/22 09:29:41;;;;;;;;;;;;;;;6.43;100.00;100923.06;5003101;28;20399;-89
2022/01/22 09:32:09;;;;;;;;;;;;;;;6.39;100.00;100911.03;5019062;28;20395;-88
2022/01/22 09:34:54;;;;;;;;;;;;;;;6.58;100.00;100925.09;5045231;28;19924;-90
2022/01/22 09:37:34;;;;;;;;;;;;;;;6.38;100.00;100926.06;5055517;28;19955;-87
2022/01/22 09:40:26;;;;;;;;;;;;;;;6.40;100.00;100940.41;5058188;28;19924;-87
2022/01/22 09:43:12;;;;;;;;;;;;;;;6.58;100.00;100922.31;5073665;28;19924;-88
2022/01/22 09:46:14;;;;;;;;;;;;;;;6.48;100.00;100936.69;5051159;28;20133;-88
2022/01/22 09:49:08;;;;;;;;;;;;;;;6.48;100.00;100928.38;5016568;28;19928;-88
2022/01/22 09:51:53;;;;;;;;;;;;;;;6.40;100.00;100934.88;5035145;28;19932;-86
2022/01/22 09:54:47;;;;;;;;;;;;;;;6.68;100.00;100919.06;5006191;28;20021;-82
2022/01/22 09:57:17;;;;;;;;;;;;;;;6.86;100.00;100923.13;5045551;28;19929;-89
2022/01/22 09:59:53;;;;;;;;;;;;;;;6.83;100.00;100923.84;5041859;28;19932;-85
2022/01/22 10:02:26;;;;;;;;;;;;;;;6.96;100.00;100925.41;5043629;28;19925;-82
2022/01/22 10:04:55;;;;;;;;;;;;;;;7.11;100.00;100927.41;5029019;28;19960;-81
2022/01/22 10:07:29;;;;;;;;;;;;;;;7.13;100.00;100919.53;5039376;28;19985;-87
2022/01/22 10:10:15;;;;;;;;;;;;;;;7.03;100.00;100920.03;5039480;28;19932;-86
2022/01/22 10:13:01;;;;;;;;;;;;;;;7.10;100.00;100917.47;5071642;28;19925;-82
2022/01/22 10:15:35;;;;;;;;;;;;;;;7.18;100.00;100916.47;5055363;28;19924;-80
2022/01/22 10:18:09;;;;;;;;;;;;;;;7.23;100.00;100913.44;5039700;28;19978;-82
2022/01/22 10:20:37;;;;;;;;;;;;;;;7.29;100.00;100934.25;5028173;28;19925;-81
2022/01/22 10:23:16;;;;;;;;;;;;;;;7.20;100.00;100916.91;5054804;28;19925;-80
2022/01/22 10:25:49;;;;;;;;;;;;;;;7.33;100.00;100918.44;5053381;28;20545;-81
2022/01/22 10:28:21;;;;;;;;;;;;;;;7.45;100.00;100915.63;5052788;28;19925;-81
2022/01/22 10:30:55;;;;;;;;;;;;;;;7.26;100.00;100927.44;5055255;28;19928;-81
2022/01/22 10:33:42;;;;;;;;;;;;;;;7.40;100.00;100927.00;5054175;28;19932;-80
2022/01/22 10:36:29;;;;;;;;;;;;;;;7.20;100.00;100900.25;5053740;28;20288;-81
2022/01/22 10:39:23;;;;;;;;;;;;;;;7.24;100.00;100915.03;5087431;28;19925;-81
2022/01/22 10:41:50;;;;;;;;;;;;;;;7.34;100.00;100920.09;5054497;28;19925;-80
2022/01/22 10:44:34;;;;;;;;;;;;;;;7.68;100.00;100924.13;5065140;28;19936;-80
2022/01/22 10:47:03;;;;;;;;;;;;;;;7.79;100.00;100931.56;5073707;28;19924;-81
2022/01/22 10:49:31;;;;;;;;;;;;;;;7.71;100.00;100927.00;5074834;28;19931;-80
2022/01/22 10:52:01;;;;;;;;;;;;;;;7.80;100.00;100937.97;5074019;28;19929;-80
2022/01/22 10:54:35;;;;;;;;;;;;;;;7.95;100.00;100918.44;5075792;28;19935;-81
2022/01/22 10:57:12;;;;;;;;;;;;;;;7.78;100.00;100931.94;5057239;28;19924;-81
2022/01/22 10:59:46;;;;;;;;;;;;;;;7.87;100.00;100946.47;5073623;28;19974;-80
2022/01/22 11:02:14;;;;;;;;;;;;;;;8.01;100.00;100933.69;5057350;28;19931;-82
2022/01/22 11:04:42;;;;;;;;;;;;;;;7.93;100.00;100919.97;5073689;28;19932;-80
2022/01/22 11:07:14;;;;;;;;;;;;;;;7.99;100.00;100932.44;5073772;28;19929;-80
2022/01/22 11:09:48;;;;;;;;;;;;;;;8.12;100.00;100937.53;5056831;28;19928;-80
2022/01/22 11:12:16;;;;;;;;;;;;;;;8.28;100.00;100957.84;5074567;28;19959;-80
2022/01/22 11:14:43;;;;;;;;;;;;;;;8.28;100.00;100957.84;5072793;28;19931;-80
2022/01/22 11:17:11;;;;;;;;;;;;;;;8.30;100.00;100957.50;5056617;28;19947;-81
2022/01/22 11:19:39;;;;;;;;;;;;;;;7.97;100.00;100962.63;5072772;28;20031;-79
2022/01/22 11:22:08;;;;;;;;;;;;;;;8.01;100.00;100950.38;5056185;28;20011;-80
2022/01/22 11:24:40;;;;;;;;;;;;;;;8.22;100.00;100938.97;5072542;28;19924;-80
2022/01/22 11:27:09;;;;;;;;;;;;;;;8.10;100.00;100933.50;5072561;28;19928;-80
2022/01/22 11:29:38;;;;;;;;;;;;;;;8.17;100.00;100942.84;5073212;28;19925;-79
2022/01/22 11:32:09;;;;;;;;;;;;;;;8.18;100.00;100924.16;5073815;28;20011;-84
2022/01/22 11:34:39;;;;;;;;;;;;;;;8.22;100.00;100920.31;5072284;28;19928;-80
2022/01/22 11:37:10;;;;;;;;;;;;;;;8.37;100.00;100921.44;5072435;28;19990;-80
2022/01/22 11:39:37;;;;;;;;;;;;;;;7.95;100.00;100926.78;5072789;28;20354;-81
2022/01/22 11:42:04;;;;;;;;;;;;;;;8.01;100.00;100925.34;5073141;28;20311;-82
2022/01/22 11:44:46;;;;;;;;;;;;;;;8.04;100.00;100913.47;5072738;28;20339;-80
2022/01/22 11:47:20;;;;;;;;;;;;;;;7.97;100.00;100921.66;5073919;28;19925;-80
2022/01/22 11:50:06;;;;;;;;;;;;;;;7.94;100.00;100907.66;5073519;28;20392;-81
2022/01/22 11:52:36;;;;;;;;;;;;;;;7.95;100.00;100918.44;5072894;28;19924;-83
2022/01/22 11:55:07;;;;;;;;;;;;;;;7.95;100.00;100924.00;5056057;28;19924;-82
2022/01/22 11:57:35;;;;;;;;;;;;;;;7.77;100.00;100922.75;5072445;28;20383;-81
2022/01/22 12:00:22;;;;;;;;;;;;;;;7.60;100.00;100917.59;5056569;28;19943;-82
2022/01/22 12:03:08;;;;;;;;;;;;;;;7.38;100.00;100911.84;5055918;28;20364;-80
2022/01/22 12:05:55;;;;;;;;;;;;;;;7.74;100.00;100906.78;5072701;28;19931;-79
2022/01/22 12:08:22;;;;;;;;;;;;;;;7.39;100.00;100917.84;5073703;28;19939;-81
2022/01/22 12:16:17;;;;;;;;;;;;;;;7.79;100.00;100939.09;5072777;28;19932;-80
2022/01/22 12:18:55;;;;;;;;;;;;;;;7.65;100.00;100936.78;5076736;28;19925;-80
2022/01/22 12:23:57;;;;;;;;;;;;;;;7.89;100.00;100941.34;5089830;28;19931;-79
2022/01/22 12:26:37;;;;;;;;;;;;;;;7.95;100.00;100946.28;5073752;28;19924;-79
2022/01/22 12:29:22;;;;;;;;;;;;;;;7.80;100.00;100957.44;5073898;28;20288;-80
2022/01/22 12:32:04;;;;;;;;;;;;;;;7.97;100.00;100949.50;5056491;28;19924;-82
2022/01/22 12:34:51;;;;;;;;;;;;;;;8.13;100.00;100963.41;5072049;28;19924;-84
2022/01/22 12:37:20;;;;;;;;;;;;;;;8.25;100.00;100952.19;5053582;28;20375;-89
2022/01/22 12:39:54;;;;;;;;;;;;;;;8.13;100.00;100958.66;5051364;28;19928;-85
2022/01/22 12:42:31;;;;;;;;;;;;;;;8.44;100.00;100947.47;5069682;28;20482;-83
2022/01/22 12:45:06;;;;;;;;;;;;;;;8.48;100.00;100948.34;5049918;28;19925;-85
2022/01/22 12:47:36;;;;;;;;;;;;;;;8.56;100.00;100950.13;5066206;28;19925;-84
2022/01/22 12:50:05;;;;;;;;;;;;;;;7.96;100.00;100961.00;5053359;28;19925;-83
2022/01/22 12:52:37;;;;;;;;;;;;;;;7.85;100.00;100966.31;5060859;28;20023;-80
2022/01/22 12:58:30;;;;;;;;;;;;;;;8.35;100.00;100966.38;5068619;28;19985;-82
2022/01/22 13:01:08;;;;;;;;;;;;;;;7.57;100.00;100973.13;5074483;28;19928;-82
2022/01/22 13:03:36;;;;;;;;;;;;;;;8.12;100.00;100964.59;5073816;28;19924;-84
2022/01/22 13:06:04;;;;;;;;;;;;;;;7.98;100.00;100976.16;5074664;28;20615;-81
2022/01/22 13:08:54;;;;;;;;;;;;;;;7.79;100.00;100970.53;5074814;28;19924;-81
2022/01/22 13:11:50;;;;;;;;;;;;;;;8.02;100.00;100962.34;5071955;28;19978;-81
2022/01/22 13:14:30;;;;;;;;;;;;;;;8.08;100.00;100946.97;5072923;28;19931;-84
2022/01/22 13:16:57;;;;;;;;;;;;;;;7.77;100.00;100966.50;5073924;28;19924;-81
2022/01/22 13:19:28;;;;;;;;;;;;;;;7.78;100.00;100940.28;5074322;28;19931;-82
2022/01/22 13:21:59;;;;;;;;;;;;;;;7.80;100.00;100965.78;5074807;28;19955;-82
2022/01/22 13:24:28;;;;;;;;;;;;;;;8.01;100.00;100967.09;5073897;28;19932;-82
2022/01/22 13:27:05;;;;;;;;;;;;;;;7.93;100.00;100965.31;5039636;28;19924;-82
2022/01/22 13:29:41;;;;;;;;;;;;;;;7.88;100.00;100939.72;5072824;28;19928;-82
2022/01/22 13:32:14;;;;;;;;;;;;;;;7.86;100.00;100951.22;5072530;28;19947;-81
2022/01/22 13:34:52;;;;;;;;;;;;;;;7.84;100.00;100959.13;5056210;28;19977;-82
2022/01/22 13:40:00;;;;;;;;;;;;;;;8.02;100.00;100946.47;5106688;28;19928;-83
2022/01/22 13:48:31;;;;;;;;;;;;;;;8.19;100.00;100929.38;5058766;28;19924;-87
2022/01/22 13:50:58;;;;;;;;;;;;;;;8.34;100.00;100939.69;5075384;28;20359;-86
2022/01/22 13:53:25;;;;;;;;;;;;;;;8.49;100.00;100943.59;5074928;28;19931;-86
2022/01/22 13:56:05;;;;;;;;;;;;;;;8.27;100.00;100938.72;5074749;28;19925;-87
2022/01/22 13:58:33;;;;;;;;;;;;;;;7.87;100.00;100938.94;5074827;28;20357;-87
2022/01/22 14:01:06;;;;;;;;;;;;;;;7.84;100.00;100936.88;5074770;28;19924;-85
2022/01/22 14:04:04;;;;;;;;;;;;;;;7.85;100.00;100946.00;5091739;28;19928;-82
2022/01/22 14:06:32;;;;;;;;;;;;;;;8.35;100.00;100938.50;5085386;28;19924;-89
2022/01/22 14:09:16;;;;;;;;;;;;;;;8.18;100.00;100952.78;5096418;28;19970;-90
2022/01/22 14:12:02;;;;;;;;;;;;;;;8.21;100.00;100942.94;5094869;28;19971;-86
2022/01/22 14:14:49;;;;;;;;;;;;;;;8.30;100.00;100930.44;5061618;28;19928;-85
2022/01/22 14:17:16;;;;;;;;;;;;;;;8.24;100.00;100915.16;5061998;28;19939;-85
2022/01/22 14:19:43;;;;;;;;;;;;;;;8.20;100.00;100914.25;5078140;28;19955;-89
2022/01/22 14:22:11;;;;;;;;;;;;;;;8.08;100.00;100931.09;5094787;28;19974;-86
2022/01/22 14:24:38;;;;;;;;;;;;;;;8.36;100.00;100923.41;5044484;28;20054;-89
2022/01/22 14:27:17;;;;;;;;;;;;;;;7.94;100.00;100919.63;5094938;27;20287;-88
2022/01/22 14:29:44;;;;;;;;;;;;;;;7.80;100.00;100933.19;5095926;28;19924;-88
2022/01/22 14:32:18;;;;;;;;;;;;;;;7.52;100.00;100921.34;5094917;28;19967;-89
2022/01/22 14:34:46;;;;;;;;;;;;;;;7.87;100.00;100927.81;5048679;28;19924;-85
2022/01/22 14:37:24;;;;;;;;;;;;;;;8.10;100.00;100936.28;5073688;28;20367;-88
2022/01/22 14:45:33;;;;;;;;;;;;;;;8.08;100.00;100933.06;5055389;28;20011;-87
2022/01/22 14:48:04;;;;;;;;;;;;;;;8.26;100.00;100935.13;5054071;28;19925;-85
2022/01/22 14:50:32;;;;;;;;;;;;;;;8.21;100.00;100938.16;5091945;28;19925;-89
2022/01/22 14:53:00;;;;;;;;;;;;;;;8.04;100.00;100949.66;5056726;28;19935;-87
2022/01/22 14:55:28;;;;;;;;;;;;;;;7.61;100.00;100941.44;5066431;28;20398;-88
2022/01/22 14:57:56;;;;;;;;;;;;;;;7.87;100.00;100950.06;5074334;28;20015;-88
2022/01/22 15:00:24;;;;;;;;;;;;;;;7.79;100.00;100937.13;5021074;28;19932;-88
2022/01/22 15:02:51;;;;;;;;;;;;;;;7.59;100.00;100949.34;5053754;28;20372;-85
2022/01/22 15:05:18;;;;;;;;;;;;;;;7.55;100.00;100937.31;5037456;28;19929;-86
2022/01/22 15:07:45;;;;;;;;;;;;;;;7.40;100.00;100929.78;5054663;28;20049;-85